Ana Sayfa
METAR-TAF:

METAR-TAF

Havaalanları :

Weno, Mikronezya

Enlem: 07-28N, Boylam: 151-51E, yükseklik: 3 m

Güncel hava durumu gözlemi

Rapor saat 13:50 UTC de 30 dakika önce yapıldı.
Rüzgar değişken yönden 5 kt
Sıcaklık 29°C
Nem 89%
Basınç 1010 hPa
Görüş mesafesi: 24.1 km
1400 ft yükseklikte az bulutlu
12000 ft yükseklikte parçalı çok bulutlu
28000 ft yükseklikte parçalı çok bulutlu

METAR: PTKK 221350Z VRB05KT 15SM FEW014 BKN120 BKN280 29/27 A2983 RMK SLP105 T02890266

Saat: 00:20 (14:20 UTC)

Tahmin

Rapor saat 11:36 UTC de 2 saat ve 44 dakika önce yapıldı.
Ayın 22'si saat 12 UTC'den ayın 23'si saat 12 UTC'ye kadar geçerli Tahmin
Rüzgar doğu/kuzeydoğudan 6 kt
Görüş mesafesi: 10 km
1800 ft yükseklikte az bulutlu
12000 ft yükseklikte parçalı çok bulutlu
Civarda sağanaklar

TAF: PTKK 221136Z 2212/2312 06006KT P6SM VCSH FEW018 BKN120

4.000'den fazla havaalanı için hava durumu gözlemleri ve tahminleri (METAR ve TAF raporları).

Kullanılabilir istasyonlar harita üzerinde sarı ve kırmızı noktalarla gösterilir.

İstasyonun adını görmek için fareyi noktanın üzerinde gezdirin.

Sonrasında hava gözlem ve tahminlerini görmek için tıklayın.

Haritayı değiştirmek için: yaklaştırmak için siyah artı işaretli yeşil düğmeye ve uzaklaştırmak için de eksi işaretli düğmeye hızla tıklayın; bitişik haritalar için yeşil okları kullanın.


METAR-TAF: